createdAt,value
2019-02-23T00:00:44.457Z,3.15
2019-02-23T00:03:13.194Z,3.58
2019-02-23T00:05:41.914Z,3.30
2019-02-23T00:08:10.895Z,3.52
2019-02-23T00:10:39.474Z,3.30
2019-02-23T00:13:08.374Z,3.10
2019-02-23T00:15:36.876Z,3.50
2019-02-23T00:18:05.837Z,3.10
2019-02-23T00:20:34.342Z,3.00
2019-02-23T00:23:03.917Z,3.60
2019-02-23T00:25:34.675Z,2.97
2019-02-23T00:28:03.234Z,3.20
2019-02-23T00:30:32.236Z,3.20
2019-02-23T00:33:00.838Z,3.02
2019-02-23T00:35:29.814Z,3.27
2019-02-23T00:37:58.565Z,3.40
2019-02-23T00:40:27.114Z,3.33
2019-02-23T00:42:55.854Z,3.22
2019-02-23T00:45:24.775Z,3.22
2019-02-23T00:47:55.294Z,3.27
2019-02-23T00:50:24.194Z,3.50
2019-02-23T00:52:53.017Z,3.20
2019-02-23T00:55:21.594Z,3.15
2019-02-23T00:57:50.350Z,3.40
2019-02-23T01:00:18.955Z,3.20
2019-02-23T01:02:48.862Z,3.20
2019-02-23T01:05:17.823Z,3.07
2019-02-23T01:07:48.774Z,3.45
2019-02-23T01:10:19.455Z,3.50
2019-02-23T01:12:47.775Z,3.17
2019-02-23T01:15:16.663Z,3.37
2019-02-23T01:17:46.674Z,3.17
2019-02-23T01:20:17.115Z,3.05
2019-02-23T01:22:46.202Z,3.55
2019-02-23T01:25:14.642Z,3.25
2019-02-23T01:27:43.656Z,3.33
2019-02-23T01:30:12.475Z,3.08
2019-02-23T01:32:40.974Z,3.30
2019-02-23T01:35:09.944Z,2.98
2019-02-23T01:37:38.834Z,3.02
2019-02-23T01:40:09.508Z,3.37
2019-02-23T01:42:38.254Z,2.98
2019-02-23T01:45:08.675Z,3.20
2019-02-23T01:47:37.502Z,3.02
2019-02-23T01:50:07.396Z,3.10
2019-02-23T01:52:35.896Z,3.33
2019-02-23T01:55:07.522Z,3.20
2019-02-23T01:57:36.100Z,3.02
2019-02-23T02:00:07.494Z,3.40
2019-02-23T02:02:36.044Z,3.47
2019-02-23T02:05:05.986Z,3.47
2019-02-23T02:07:35.062Z,3.47
2019-02-23T02:10:04.454Z,3.30
2019-02-23T02:12:33.242Z,3.02
2019-02-23T02:15:01.715Z,3.40
2019-02-23T02:17:30.714Z,3.30
2019-02-23T02:20:10.120Z,3.50
2019-02-23T02:22:30.994Z,3.00
2019-02-23T02:24:59.436Z,3.17
2019-02-23T02:27:29.854Z,3.47
2019-02-23T02:29:59.674Z,3.08
2019-02-23T02:32:28.556Z,3.17
2019-02-23T02:34:58.975Z,3.52
2019-02-23T02:37:27.755Z,3.20
2019-02-23T02:39:57.003Z,3.10
2019-02-23T02:42:25.856Z,3.10
2019-02-23T02:44:54.314Z,3.37
2019-02-23T02:47:23.135Z,3.27
2019-02-23T02:49:53.354Z,3.22
2019-02-23T02:52:22.255Z,3.65
2019-02-23T02:54:51.134Z,3.33
2019-02-23T02:57:19.579Z,2.98
2019-02-23T02:59:48.374Z,3.15
2019-02-23T03:02:19.034Z,3.00
2019-02-23T03:04:47.895Z,3.33
2019-02-23T03:07:17.214Z,3.80
2019-02-23T03:09:45.734Z,3.50
2019-02-23T03:12:14.596Z,3.37
2019-02-23T03:14:44.715Z,3.52
2019-02-23T03:17:13.595Z,3.30
2019-02-23T03:19:42.354Z,3.20
2019-02-23T03:22:11.094Z,3.35
2019-02-23T03:24:40.076Z,3.12
2019-02-23T03:27:10.694Z,3.10
2019-02-23T03:29:39.454Z,3.20
2019-02-23T03:32:08.904Z,3.10
2019-02-23T03:34:37.775Z,3.05
2019-02-23T03:37:06.675Z,3.17
2019-02-23T03:39:35.577Z,3.02
2019-02-23T03:42:04.315Z,3.22
2019-02-23T03:44:33.156Z,3.20
2019-02-23T03:47:02.043Z,3.50
2019-02-23T03:49:30.474Z,3.35
2019-02-23T03:51:59.402Z,3.05
2019-02-23T03:54:28.296Z,3.20
2019-02-23T03:56:57.039Z,3.35
2019-02-23T03:59:26.175Z,3.30
2019-02-23T04:01:54.758Z,3.30
2019-02-23T04:04:23.334Z,2.98
2019-02-23T04:06:52.335Z,3.20
2019-02-23T04:09:20.858Z,3.47
2019-02-23T04:11:49.657Z,2.92
2019-02-23T04:14:18.597Z,2.95
2019-02-23T04:16:47.515Z,2.98
2019-02-23T04:19:16.375Z,3.15
2019-02-23T04:21:45.354Z,3.05
2019-02-23T04:24:13.893Z,3.27
2019-02-23T04:26:42.483Z,3.20
2019-02-23T04:29:11.434Z,3.25
2019-02-23T04:31:40.295Z,3.20
2019-02-23T04:34:09.215Z,3.40
2019-02-23T04:36:38.235Z,3.75
2019-02-23T04:39:07.335Z,2.98
2019-02-23T04:41:38.814Z,3.22
2019-02-23T04:44:07.575Z,3.05
2019-02-23T04:46:35.994Z,3.27
2019-02-23T04:49:04.879Z,3.50
2019-02-23T04:51:35.356Z,3.37
2019-02-23T04:54:03.914Z,2.87
2019-02-23T04:56:32.915Z,3.42
2019-02-23T04:59:02.574Z,2.95
2019-02-23T05:01:31.355Z,3.05
2019-02-23T05:04:00.635Z,3.30
2019-02-23T05:06:31.234Z,3.42
2019-02-23T05:09:00.019Z,3.12
2019-02-23T05:11:30.415Z,3.27
2019-02-23T05:13:58.838Z,3.45
2019-02-23T05:16:29.375Z,3.25
2019-02-23T05:18:57.874Z,3.30
2019-02-23T05:21:27.098Z,3.30
2019-02-23T05:23:57.674Z,3.25
2019-02-23T05:26:26.615Z,3.58
2019-02-23T05:28:56.838Z,2.87
2019-02-23T05:31:25.674Z,3.45
2019-02-23T05:33:54.675Z,3.33
2019-02-23T05:36:23.555Z,3.58
2019-02-23T05:38:52.314Z,3.22
2019-02-23T05:41:22.774Z,3.30
2019-02-23T05:43:51.674Z,3.40
2019-02-23T05:46:20.554Z,3.33
2019-02-23T05:48:49.296Z,3.62
2019-02-23T05:51:19.416Z,3.33
2019-02-23T05:53:47.874Z,3.40
2019-02-23T05:56:21.156Z,3.45
2019-02-23T05:58:50.036Z,3.72
2019-02-23T06:01:18.915Z,3.40
2019-02-23T06:03:47.656Z,3.67
2019-02-23T06:06:16.154Z,3.27
2019-02-23T06:08:45.077Z,3.42
2019-02-23T06:11:13.944Z,3.35
2019-02-23T06:13:42.962Z,3.33
2019-02-23T06:16:11.738Z,2.90
2019-02-23T06:18:40.474Z,3.12
2019-02-23T06:21:10.065Z,3.40
2019-02-23T06:23:38.836Z,3.00
2019-02-23T06:26:07.843Z,3.42
2019-02-23T06:28:36.935Z,3.35
2019-02-23T06:31:06.934Z,3.62
2019-02-23T06:33:35.853Z,3.60
2019-02-23T06:36:05.934Z,3.60
2019-02-23T06:38:34.734Z,3.30
2019-02-23T06:41:03.536Z,3.55
2019-02-23T06:43:33.395Z,3.45
2019-02-23T06:46:03.522Z,3.20
2019-02-23T06:48:32.456Z,3.27
2019-02-23T06:51:02.877Z,3.00
2019-02-23T06:53:31.754Z,3.27
2019-02-23T06:56:00.674Z,3.08
2019-02-23T06:58:30.795Z,3.35
2019-02-23T07:00:59.354Z,3.50
2019-02-23T07:03:28.255Z,3.30
2019-02-23T07:05:57.855Z,3.15
2019-02-23T07:08:26.314Z,3.20
2019-02-23T07:10:54.915Z,3.00
2019-02-23T07:13:25.654Z,3.40
2019-02-23T07:18:22.816Z,3.27
2019-02-23T07:20:51.217Z,3.47
2019-02-23T07:23:22.854Z,3.60
2019-02-23T07:25:51.783Z,3.15
2019-02-23T07:28:20.634Z,3.47
2019-02-23T07:30:49.254Z,3.72
2019-02-23T07:33:29.548Z,3.15
2019-02-23T07:35:48.474Z,3.70
2019-02-23T07:38:18.276Z,3.50
2019-02-23T07:40:47.158Z,3.30
2019-02-23T07:43:19.195Z,3.00
2019-02-23T07:45:47.923Z,3.30
2019-02-23T07:48:16.974Z,3.33
2019-02-23T07:50:46.814Z,3.45
2019-02-23T07:53:15.330Z,3.53
2019-02-23T07:55:45.015Z,3.40
2019-02-23T07:58:13.974Z,3.07
2019-02-23T08:00:42.894Z,3.52
2019-02-23T08:03:11.354Z,3.90
2019-02-23T08:05:40.234Z,4.65
2019-02-23T08:08:09.435Z,6.05
2019-02-23T08:10:40.055Z,6.35
2019-02-23T08:13:08.955Z,6.72
2019-02-23T08:15:37.754Z,7.53
2019-02-23T08:18:06.535Z,8.15
2019-02-23T08:20:36.574Z,8.90
2019-02-23T08:23:05.557Z,8.58
2019-02-23T08:25:34.736Z,9.18
2019-02-23T08:28:03.999Z,9.63
2019-02-23T08:30:34.354Z,8.70
2019-02-23T08:33:03.685Z,9.13
2019-02-23T08:35:32.434Z,8.93
2019-02-23T08:38:01.783Z,8.50
2019-02-23T08:40:30.534Z,8.33
2019-02-23T08:43:01.194Z,8.33
2019-02-23T08:45:30.175Z,8.78
2019-02-23T08:47:59.055Z,7.80
2019-02-23T08:50:28.136Z,7.60
2019-02-23T08:52:57.423Z,7.45
2019-02-23T08:55:27.535Z,7.00
2019-02-23T08:57:56.315Z,8.15
2019-02-23T09:00:25.066Z,6.78
2019-02-23T09:02:53.816Z,7.30
2019-02-23T09:05:23.009Z,7.20
2019-02-23T09:07:52.062Z,6.85
2019-02-23T09:10:20.915Z,6.55
2019-02-23T09:12:49.985Z,7.08
2019-02-23T09:15:22.044Z,6.53
2019-02-23T09:17:49.734Z,6.30
2019-02-23T09:20:28.573Z,6.25
2019-02-23T09:22:59.505Z,6.45
2019-02-23T09:25:18.902Z,6.20
2019-02-23T09:27:47.634Z,7.08
2019-02-23T09:30:18.094Z,6.20
2019-02-23T09:32:46.590Z,6.17
2019-02-23T09:35:15.154Z,6.42
2019-02-23T09:37:43.745Z,6.37
2019-02-23T09:40:15.216Z,6.00
2019-02-23T09:42:43.975Z,5.83
2019-02-23T09:45:13.175Z,5.70
2019-02-23T09:47:43.056Z,5.12
2019-02-23T09:50:11.674Z,5.83
2019-02-23T09:52:40.674Z,5.65
2019-02-23T09:55:09.875Z,5.97
2019-02-23T09:57:38.443Z,5.62
2019-02-23T10:00:10.035Z,5.20
2019-02-23T10:02:38.600Z,5.03
2019-02-23T10:05:09.414Z,4.87
